createdAt,value
2023-01-01T00:02:01.715Z,11.73
2023-01-01T00:04:29.986Z,7.15
2023-01-01T00:06:56.565Z,11.73
2023-01-01T00:09:23.129Z,13.90
2023-01-01T00:11:49.800Z,8.68
2023-01-01T00:14:16.357Z,9.45
2023-01-01T00:16:43.078Z,8.07
2023-01-01T00:19:09.799Z,8.38
2023-01-01T00:21:37.936Z,8.20
2023-01-01T00:24:05.461Z,14.45
2023-01-01T00:26:35.280Z,6.55
2023-01-01T00:29:02.696Z,10.02
2023-01-01T00:31:29.722Z,6.47
2023-01-01T00:33:57.001Z,10.27
2023-01-01T00:36:25.235Z,9.90
2023-01-01T00:38:53.889Z,5.57
2023-01-01T00:41:20.760Z,8.32
2023-01-01T00:43:47.788Z,7.25
2023-01-01T00:46:14.565Z,13.20
2023-01-01T00:48:41.324Z,10.35
2023-01-01T00:51:08.141Z,11.70
2023-01-01T00:53:34.862Z,8.85
2023-01-01T00:56:03.423Z,7.85
2023-01-01T00:58:30.246Z,7.18
2023-01-01T01:00:56.982Z,16.35
2023-01-01T01:03:24.122Z,10.95
2023-01-01T01:05:50.764Z,6.07
2023-01-01T01:08:17.477Z,11.75
2023-01-01T01:10:44.111Z,14.73
2023-01-01T01:13:12.134Z,8.10
2023-01-01T01:15:38.728Z,6.72
2023-01-01T01:18:05.333Z,13.32
2023-01-01T01:20:31.936Z,7.93
2023-01-01T01:22:58.541Z,8.02
2023-01-01T01:25:25.127Z,8.73
2023-01-01T01:27:51.791Z,7.80
2023-01-01T01:30:19.864Z,6.93
2023-01-01T01:32:46.625Z,10.30
2023-01-01T01:35:13.198Z,8.18
2023-01-01T01:37:39.810Z,9.18
2023-01-01T01:40:07.754Z,13.25
2023-01-01T01:42:34.404Z,9.90
2023-01-01T01:45:02.260Z,8.25
2023-01-01T01:47:35.624Z,8.50
2023-01-01T01:50:08.855Z,7.95
2023-01-01T01:52:38.522Z,9.10
2023-01-01T01:55:08.080Z,6.35
2023-01-01T01:57:34.899Z,10.70
2023-01-01T02:00:08.626Z,7.07
2023-01-01T02:02:45.149Z,8.82
2023-01-01T02:05:12.143Z,9.10
2023-01-01T02:07:39.630Z,7.30
2023-01-01T02:10:06.788Z,9.98
2023-01-01T02:12:33.373Z,9.07
2023-01-01T02:15:00.231Z,6.38
2023-01-01T02:17:39.023Z,10.98
2023-01-01T02:20:24.523Z,8.27
2023-01-01T02:23:14.812Z,12.60
2023-01-01T02:25:57.744Z,6.88
2023-01-01T02:28:44.100Z,9.37
2023-01-01T02:31:18.213Z,8.68
2023-01-01T02:33:50.056Z,11.68
2023-01-01T02:36:19.133Z,13.02
2023-01-01T02:38:50.337Z,10.65
2023-01-01T02:41:23.151Z,11.25
2023-01-01T02:43:51.497Z,7.53
2023-01-01T02:48:46.070Z,8.93
2023-01-01T02:51:21.651Z,15.45
2023-01-01T02:53:55.791Z,11.77
2023-01-01T02:56:33.468Z,12.75
2023-01-01T02:59:14.937Z,14.20
2023-01-01T03:01:48.806Z,10.57
2023-01-01T03:04:24.981Z,7.20
2023-01-01T03:07:01.770Z,10.05
2023-01-01T03:09:41.801Z,8.10
2023-01-01T03:12:18.936Z,8.68
2023-01-01T03:14:53.625Z,11.70
2023-01-01T03:17:26.623Z,6.53
2023-01-01T03:19:54.781Z,6.50
2023-01-01T03:22:25.044Z,8.07
2023-01-01T03:24:54.241Z,15.98
2023-01-01T03:27:24.805Z,11.15
2023-01-01T03:29:56.996Z,10.57
2023-01-01T03:32:27.762Z,10.60
2023-01-01T03:34:57.125Z,9.27
2023-01-01T03:37:27.360Z,11.18
2023-01-01T03:39:59.308Z,9.48
2023-01-01T03:42:31.814Z,8.63
2023-01-01T03:45:03.502Z,9.27
2023-01-01T03:47:31.099Z,8.07
2023-01-01T03:49:58.896Z,11.27
2023-01-01T03:52:41.127Z,8.38
2023-01-01T03:55:15.734Z,9.32
2023-01-01T03:57:49.415Z,7.70
2023-01-01T04:00:20.199Z,11.20
2023-01-01T04:02:52.600Z,10.02
2023-01-01T04:05:20.321Z,5.53
2023-01-01T04:10:13.656Z,13.05
2023-01-01T04:12:41.432Z,10.75
2023-01-01T04:15:08.571Z,7.78
2023-01-01T04:17:36.542Z,7.13
2023-01-01T04:20:03.374Z,7.40
2023-01-01T04:22:30.027Z,13.05
2023-01-01T04:24:56.673Z,10.43
2023-01-01T04:27:23.245Z,10.57
2023-01-01T04:29:49.911Z,7.72
2023-01-01T04:32:16.599Z,8.25
2023-01-01T04:34:44.650Z,7.80
2023-01-01T04:37:13.350Z,11.63
2023-01-01T04:39:40.893Z,15.48
2023-01-01T04:42:07.474Z,29.38
2023-01-01T04:44:34.150Z,10.32
2023-01-01T04:47:00.790Z,12.32
2023-01-01T04:49:27.430Z,16.30
2023-01-01T04:51:55.613Z,9.15
2023-01-01T04:54:22.302Z,9.35
2023-01-01T04:56:48.888Z,11.23
2023-01-01T04:59:15.484Z,13.10
2023-01-01T05:01:42.293Z,11.13
2023-01-01T05:04:13.331Z,9.07
2023-01-01T05:06:40.333Z,11.60
2023-01-01T05:09:09.544Z,12.57
2023-01-01T05:11:36.748Z,8.95
2023-01-01T05:14:03.876Z,12.40
2023-01-01T05:16:32.541Z,12.13
2023-01-01T05:18:59.750Z,8.15
2023-01-01T05:21:28.258Z,8.10
2023-01-01T05:23:55.583Z,8.73
2023-01-01T05:26:25.610Z,7.03
2023-01-01T05:28:52.443Z,8.40
2023-01-01T05:31:20.822Z,6.82
2023-01-01T05:33:48.169Z,12.60
2023-01-01T05:36:16.923Z,11.23
2023-01-01T05:38:43.753Z,10.88
2023-01-01T05:41:12.943Z,10.85
2023-01-01T05:43:41.648Z,10.23
2023-01-01T05:46:12.246Z,15.88
2023-01-01T05:48:38.922Z,12.80
2023-01-01T05:51:07.316Z,9.93
2023-01-01T05:53:34.510Z,8.13
2023-01-01T05:56:01.551Z,8.73
2023-01-01T05:58:29.624Z,10.40
2023-01-01T06:00:57.702Z,9.20
2023-01-01T06:03:24.316Z,6.60
2023-01-01T06:05:50.956Z,11.30
2023-01-01T06:08:17.542Z,8.43
2023-01-01T06:10:44.141Z,10.43
2023-01-01T06:13:13.348Z,13.85
2023-01-01T06:15:40.301Z,8.10
2023-01-01T06:18:08.258Z,9.65
2023-01-01T06:20:34.918Z,10.60
2023-01-01T06:23:01.704Z,7.10
2023-01-01T06:25:28.330Z,10.82
2023-01-01T06:27:54.889Z,9.95
2023-01-01T06:30:21.614Z,10.70
2023-01-01T06:32:48.221Z,9.68
2023-01-01T06:35:16.374Z,9.10
2023-01-01T06:37:42.946Z,8.43
2023-01-01T06:40:10.278Z,10.23
2023-01-01T06:42:37.048Z,4.72
2023-01-01T06:45:03.988Z,9.52
2023-01-01T06:47:33.665Z,9.07
2023-01-01T06:50:00.296Z,7.28
2023-01-01T06:52:28.407Z,7.75
2023-01-01T06:54:55.032Z,11.70
2023-01-01T06:57:21.647Z,8.95
2023-01-01T06:59:48.236Z,8.98
2023-01-01T07:02:15.042Z,9.55
2023-01-01T07:04:41.849Z,5.93
2023-01-01T07:07:08.482Z,9.65
2023-01-01T07:09:36.547Z,12.07
2023-01-01T07:12:03.270Z,11.32
2023-01-01T07:14:29.835Z,12.32
2023-01-01T07:16:56.393Z,11.45
2023-01-01T07:19:23.035Z,7.15
2023-01-01T07:21:52.998Z,6.55
2023-01-01T07:24:20.256Z,6.72
2023-01-01T07:26:48.242Z,9.90
2023-01-01T07:29:15.221Z,6.85
2023-01-01T07:31:43.741Z,7.75
2023-01-01T07:34:13.547Z,8.82
2023-01-01T07:36:40.480Z,7.75
2023-01-01T07:39:07.116Z,8.38
2023-01-01T07:41:33.747Z,8.88
2023-01-01T07:44:01.884Z,7.43
2023-01-01T07:46:28.729Z,11.82
2023-01-01T07:48:55.391Z,8.85
2023-01-01T07:51:22.013Z,9.27
2023-01-01T07:53:48.628Z,13.48
2023-01-01T07:56:15.294Z,7.25
2023-01-01T07:58:42.288Z,10.90
2023-01-01T08:01:12.039Z,10.68
2023-01-01T08:03:39.058Z,6.68
2023-01-01T08:06:10.023Z,8.93
2023-01-01T08:08:36.749Z,13.80
2023-01-01T08:11:04.273Z,8.60
2023-01-01T08:13:31.043Z,10.65
2023-01-01T08:15:58.374Z,12.07
2023-01-01T08:18:26.699Z,8.98
2023-01-01T08:20:53.693Z,7.57
2023-01-01T08:23:20.350Z,9.52
2023-01-01T08:25:46.960Z,12.43
2023-01-01T08:28:13.607Z,8.93
2023-01-01T08:30:40.253Z,8.10
2023-01-01T08:33:06.924Z,8.85
2023-01-01T08:35:37.591Z,8.35
2023-01-01T08:38:04.194Z,7.68
2023-01-01T08:40:30.833Z,11.15
2023-01-01T08:42:57.432Z,8.95
2023-01-01T08:45:23.995Z,9.85
2023-01-01T08:47:50.578Z,10.80
2023-01-01T08:50:17.635Z,11.55
2023-01-01T08:52:45.583Z,8.00
2023-01-01T08:55:12.191Z,10.07
2023-01-01T08:57:38.851Z,7.80
2023-01-01T09:00:06.956Z,11.27
2023-01-01T09:02:33.593Z,13.15
2023-01-01T09:05:00.377Z,10.52
2023-01-01T09:07:26.950Z,7.15
2023-01-01T09:09:55.055Z,13.43
2023-01-01T09:12:21.701Z,10.05
2023-01-01T09:14:48.330Z,11.90
2023-01-01T09:17:15.359Z,8.95
2023-01-01T09:19:41.967Z,8.45
2023-01-01T09:22:09.353Z,9.50
2023-01-01T09:24:36.024Z,9.35
2023-01-01T09:27:04.356Z,11.15
2023-01-01T09:29:30.990Z,12.55
2023-01-01T09:31:57.582Z,8.02
2023-01-01T09:34:24.334Z,8.68
2023-01-01T09:36:50.923Z,8.35
2023-01-01T09:39:17.586Z,8.93
2023-01-01T09:41:57.584Z,7.15
2023-01-01T09:44:45.397Z,11.90
2023-01-01T09:47:22.010Z,7.80
2023-01-01T09:49:50.792Z,8.13
2023-01-01T09:52:19.981Z,10.32
2023-01-01T09:54:53.244Z,9.15
2023-01-01T09:57:26.779Z,6.40
2023-01-01T10:02:35.963Z,8.18
2023-01-01T10:05:13.974Z,7.82
2023-01-01T10:07:45.402Z,5.80
2023-01-01T10:10:27.154Z,7.22
2023-01-01T10:12:58.578Z,7.00
2023-01-01T10:15:31.597Z,6.03
2023-01-01T10:18:00.544Z,7.88
2023-01-01T10:20:33.468Z,8.70
2023-01-01T10:23:02.492Z,7.50
2023-01-01T10:25:32.192Z,4.65
2023-01-01T10:51:44.510Z,5.68
2023-01-01T10:54:31.839Z,8.25
2023-01-01T10:56:58.708Z,6.72
2023-01-01T10:59:37.602Z,5.30
2023-01-01T11:02:19.589Z,5.95
2023-01-01T11:04:46.939Z,6.55
2023-01-01T11:07:26.582Z,5.35
2023-01-01T11:10:03.577Z,5.63
2023-01-01T11:15:25.989Z,3.42
2023-01-01T11:18:02.110Z,6.97
2023-01-01T11:20:28.792Z,7.72
2023-01-01T11:22:56.743Z,6.95
2023-01-01T11:25:25.548Z,6.80
2023-01-01T11:27:53.225Z,6.45
2023-01-01T11:30:29.499Z,5.32
2023-01-01T11:33:00.530Z,4.60
2023-01-01T11:35:31.451Z,4.55
2023-01-01T11:37:59.877Z,9.68
2023-01-01T11:40:33.152Z,4.88
2023-01-01T11:43:03.160Z,6.57
2023-01-01T11:45:37.607Z,6.82
2023-01-01T11:48:11.135Z,5.88
2023-01-01T11:50:40.778Z,6.18
2023-01-01T11:53:28.549Z,5.00
2023-01-01T11:56:03.437Z,5.55
2023-01-01T11:58:38.058Z,7.22
2023-01-01T12:01:10.162Z,5.05
2023-01-01T12:03:42.011Z,6.60
2023-01-01T12:06:16.667Z,4.72
2023-01-01T12:08:52.542Z,7.60
2023-01-01T12:11:23.606Z,7.80
2023-01-01T12:13:55.574Z,5.82
2023-01-01T12:16:34.743Z,2.67
2023-01-01T12:19:06.339Z,5.47
2023-01-01T12:21:34.620Z,4.75
2023-01-01T12:24:02.634Z,7.38
2023-01-01T12:26:40.859Z,6.32
2023-01-01T12:29:48.397Z,4.28
2023-01-01T12:32:25.979Z,11.52
2023-01-01T12:34:59.454Z,5.20
2023-01-01T12:43:01.131Z,4.95
2023-01-01T12:46:00.964Z,7.75
2023-01-01T12:48:41.993Z,8.77
2023-01-01T12:51:22.458Z,4.88
2023-01-01T12:54:01.301Z,5.30
2023-01-01T12:56:35.496Z,12.98
2023-01-01T12:59:07.366Z,8.35
2023-01-01T13:01:36.029Z,5.63
2023-01-01T13:04:05.401Z,6.38
2023-01-01T13:06:38.246Z,5.75
2023-01-01T13:09:10.601Z,7.03
2023-01-01T13:11:44.953Z,6.85
2023-01-01T13:14:12.578Z,7.35
2023-01-01T13:16:41.151Z,5.30
2023-01-01T13:19:26.783Z,3.70
2023-01-01T13:21:53.366Z,4.10
2023-01-01T13:24:22.275Z,7.22
2023-01-01T13:26:50.924Z,8.13
2023-01-01T13:29:43.832Z,7.75
2023-01-01T13:32:12.350Z,6.50
2023-01-01T13:35:02.610Z,5.10
2023-01-01T13:37:43.423Z,6.07
2023-01-01T13:40:47.235Z,4.97
2023-01-01T13:43:32.795Z,3.38
2023-01-01T13:46:11.901Z,8.18
2023-01-01T13:49:19.415Z,6.93
2023-01-01T13:52:05.295Z,6.53
2023-01-01T13:55:03.845Z,4.05
2023-01-01T13:57:48.255Z,7.60
2023-01-01T14:00:20.548Z,7.65
2023-01-01T14:02:51.000Z,7.82
2023-01-01T14:05:22.803Z,8.23
2023-01-01T14:07:52.373Z,6.75
2023-01-01T14:10:25.345Z,5.70
2023-01-01T14:12:54.254Z,3.57
2023-01-01T14:15:28.137Z,7.25
2023-01-01T14:17:56.637Z,3.83
2023-01-01T14:20:28.301Z,6.53
2023-01-01T14:22:54.945Z,6.53
2023-01-01T14:25:26.906Z,6.53
2023-01-01T14:27:55.014Z,9.18
2023-01-01T14:30:21.933Z,7.50
2023-01-01T14:32:57.893Z,6.63
2023-01-01T14:35:24.951Z,7.88
2023-01-01T14:37:52.006Z,7.03
2023-01-01T14:40:20.467Z,7.95
2023-01-01T14:42:50.792Z,6.53
2023-01-01T14:45:18.677Z,10.43
2023-01-01T14:47:49.000Z,4.13
2023-01-01T14:50:24.091Z,6.18
2023-01-01T14:52:54.425Z,6.85
2023-01-01T14:55:21.232Z,5.07
2023-01-01T14:57:55.693Z,5.80
2023-01-01T15:00:25.441Z,5.40
2023-01-01T15:02:52.325Z,8.45
2023-01-01T15:05:34.864Z,11.00
2023-01-01T15:08:03.538Z,6.35
2023-01-01T15:10:33.437Z,5.10
2023-01-01T15:13:00.114Z,8.90
2023-01-01T15:15:38.520Z,10.57
2023-01-01T15:18:05.339Z,9.50
2023-01-01T15:20:34.446Z,8.02
2023-01-01T15:23:07.959Z,6.82
2023-01-01T15:25:36.434Z,8.88
2023-01-01T15:28:03.092Z,7.18
2023-01-01T15:30:32.100Z,7.97
2023-01-01T15:33:06.472Z,10.30
2023-01-01T15:35:35.575Z,5.78
2023-01-01T15:38:04.260Z,5.72
2023-01-01T15:40:33.889Z,7.88
2023-01-01T15:43:15.622Z,10.13
2023-01-01T15:45:50.711Z,4.32
2023-01-01T15:48:25.145Z,8.13
2023-01-01T15:51:07.608Z,9.40
2023-01-01T15:53:46.740Z,6.85
2023-01-01T15:56:15.102Z,5.10
2023-01-01T15:58:47.503Z,14.80
2023-01-01T16:01:19.955Z,4.68
2023-01-01T16:03:48.487Z,6.85
2023-01-01T16:06:17.855Z,6.00
2023-01-01T16:08:44.458Z,9.45
2023-01-01T16:11:11.174Z,4.43
2023-01-01T16:13:37.721Z,8.25
2023-01-01T16:16:15.107Z,8.30
2023-01-01T16:18:43.082Z,4.53
2023-01-01T16:21:10.004Z,7.32
2023-01-01T16:23:37.862Z,6.72
2023-01-01T16:26:04.680Z,7.28
2023-01-01T16:28:31.156Z,6.80
2023-01-01T16:30:58.207Z,7.13
2023-01-01T16:33:24.757Z,5.65
2023-01-01T16:35:51.331Z,10.68
2023-01-01T16:38:17.866Z,8.68
2023-01-01T16:40:45.797Z,6.85
2023-01-01T16:43:18.703Z,8.63
2023-01-01T16:45:45.541Z,6.95
2023-01-01T16:48:12.295Z,8.20
2023-01-01T16:50:38.843Z,8.38
2023-01-01T16:53:05.373Z,10.52
2023-01-01T16:55:31.882Z,7.35
2023-01-01T16:58:38.042Z,11.18
2023-01-01T17:00:47.466Z,6.40
2023-01-01T17:03:14.725Z,7.25
2023-01-01T17:05:44.299Z,6.03
2023-01-01T17:08:11.061Z,9.57
2023-01-01T17:10:37.623Z,10.20
2023-01-01T17:13:05.625Z,6.88
2023-01-01T17:15:32.235Z,9.77
2023-01-01T17:17:58.874Z,9.45
2023-01-01T17:20:26.578Z,13.25
2023-01-01T17:22:53.347Z,7.93
2023-01-01T17:25:20.336Z,10.90
2023-01-01T17:27:46.989Z,12.85
2023-01-01T17:30:15.485Z,7.00
2023-01-01T17:32:42.040Z,12.27
2023-01-01T17:35:09.362Z,10.50
2023-01-01T17:37:35.851Z,8.40
2023-01-01T17:40:02.436Z,6.28
2023-01-01T17:42:29.680Z,6.97
2023-01-01T17:44:56.219Z,7.95
2023-01-01T17:47:27.910Z,8.50
2023-01-01T17:49:57.482Z,9.65
2023-01-01T17:52:24.014Z,7.80
2023-01-01T17:54:50.549Z,12.43
2023-01-01T17:57:17.304Z,9.70
2023-01-01T17:59:43.836Z,7.78
2023-01-01T18:02:12.019Z,13.45
2023-01-01T18:04:40.050Z,11.43
2023-01-01T18:07:06.810Z,7.00
2023-01-01T18:09:33.385Z,16.17
2023-01-01T18:11:59.957Z,16.20
2023-01-01T18:14:26.893Z,19.75
2023-01-01T18:16:53.448Z,16.50
2023-01-01T18:19:20.024Z,14.38
2023-01-01T18:21:48.051Z,21.63
2023-01-01T18:24:15.918Z,15.10
2023-01-01T18:26:42.849Z,19.95
2023-01-01T18:29:09.418Z,35.20
2023-01-01T18:31:36.083Z,26.50
2023-01-01T18:34:02.774Z,27.30
2023-01-01T18:36:31.356Z,32.67
2023-01-01T18:39:01.772Z,28.70
2023-01-01T18:41:39.861Z,27.70
2023-01-01T18:44:14.513Z,25.05
2023-01-01T18:46:41.126Z,24.48
2023-01-01T18:49:09.049Z,23.10
2023-01-01T18:51:35.597Z,22.52
2023-01-01T18:54:11.954Z,20.65
2023-01-01T18:56:38.737Z,15.35
2023-01-01T18:59:18.797Z,20.23
2023-01-01T19:01:45.760Z,14.98
2023-01-01T19:04:12.843Z,17.02
2023-01-01T19:06:39.556Z,10.23
2023-01-01T19:09:18.245Z,11.93
2023-01-01T19:11:44.788Z,9.55
2023-01-01T19:14:15.269Z,11.90
2023-01-01T19:16:42.124Z,10.25
2023-01-01T19:19:16.217Z,9.32
2023-01-01T19:21:47.921Z,9.55
2023-01-01T19:24:21.991Z,10.70
2023-01-01T19:26:51.864Z,15.68
2023-01-01T19:29:19.828Z,10.95
2023-01-01T19:31:47.616Z,12.60
2023-01-01T19:34:14.261Z,10.15
2023-01-01T19:36:41.370Z,13.30
2023-01-01T19:39:08.396Z,11.15
2023-01-01T19:41:36.679Z,17.88
2023-01-01T19:44:07.230Z,10.38
2023-01-01T19:46:36.675Z,11.43
2023-01-01T19:49:03.334Z,8.68
2023-01-01T19:51:29.888Z,15.38
2023-01-01T19:53:56.433Z,11.63
2023-01-01T19:56:23.364Z,9.43
2023-01-01T19:58:51.394Z,10.13
2023-01-01T20:01:18.080Z,9.77
2023-01-01T20:04:00.411Z,9.57
2023-01-01T20:06:27.637Z,8.38
2023-01-01T20:08:54.193Z,7.35
2023-01-01T20:11:20.998Z,7.28
2023-01-01T20:13:47.650Z,12.43
2023-01-01T20:16:15.664Z,8.15
2023-01-01T20:18:42.240Z,6.43
2023-01-01T20:21:08.832Z,13.73
2023-01-01T20:23:35.350Z,9.02
2023-01-01T20:26:01.936Z,11.55
2023-01-01T20:28:29.702Z,6.22
2023-01-01T20:30:56.394Z,12.93
2023-01-01T20:33:24.374Z,7.20
2023-01-01T20:35:50.926Z,7.70
2023-01-01T20:38:17.538Z,9.93
2023-01-01T20:40:44.069Z,9.82
2023-01-01T20:43:10.545Z,7.25
2023-01-01T20:45:37.098Z,6.10
2023-01-01T20:48:04.074Z,7.78
2023-01-01T20:50:31.919Z,8.52
2023-01-01T20:52:58.474Z,8.52
2023-01-01T20:55:25.006Z,7.85
2023-01-01T20:57:51.602Z,5.85
2023-01-01T21:00:18.499Z,9.65
2023-01-01T21:02:45.120Z,5.20
2023-01-01T21:05:11.730Z,7.70
2023-01-01T21:07:39.609Z,12.20
2023-01-01T21:10:07.634Z,12.70
2023-01-01T21:12:36.265Z,4.75
2023-01-01T21:15:10.249Z,5.03
2023-01-01T21:17:36.730Z,8.35
2023-01-01T21:20:03.571Z,6.43
2023-01-01T21:22:32.065Z,11.27
2023-01-01T21:25:48.657Z,6.15
2023-01-01T21:27:54.052Z,9.85
2023-01-01T21:30:21.045Z,8.73
2023-01-01T21:32:50.615Z,7.50
2023-01-01T21:35:19.789Z,7.85
2023-01-01T21:37:48.283Z,13.95
2023-01-01T21:40:40.178Z,6.60
2023-01-01T21:43:22.751Z,4.93
2023-01-01T21:45:49.669Z,7.75
2023-01-01T21:48:19.325Z,6.50
2023-01-01T21:50:47.812Z,10.05
2023-01-01T21:53:16.458Z,8.43
2023-01-01T21:55:46.415Z,6.28
2023-01-01T21:58:19.375Z,6.85
2023-01-01T22:00:47.652Z,8.85
2023-01-01T22:03:14.566Z,5.93
2023-01-01T22:05:41.438Z,7.57
2023-01-01T22:08:22.774Z,7.85
2023-01-01T22:10:51.320Z,10.05
2023-01-01T22:13:19.338Z,8.48
2023-01-01T22:15:46.413Z,5.00
2023-01-01T22:18:21.575Z,8.07
2023-01-01T22:20:48.478Z,7.63
2023-01-01T22:23:23.896Z,7.97
2023-01-01T22:25:52.409Z,7.43
2023-01-01T22:28:21.999Z,8.52
2023-01-01T22:30:52.314Z,8.20
2023-01-01T22:33:25.090Z,11.13
2023-01-01T22:35:53.442Z,11.75
2023-01-01T22:38:22.052Z,7.60
2023-01-01T22:40:50.391Z,7.72
2023-01-01T22:43:25.906Z,9.13
2023-01-01T22:45:52.921Z,9.02
2023-01-01T22:48:23.008Z,10.93
2023-01-01T22:50:51.261Z,9.60
2023-01-01T22:53:17.798Z,8.35
2023-01-01T22:55:44.309Z,10.00
2023-01-01T22:58:10.929Z,7.85
2023-01-01T23:00:38.827Z,8.63
2023-01-01T23:03:05.381Z,15.90
2023-01-01T23:05:32.155Z,10.23
2023-01-01T23:07:58.917Z,9.15
2023-01-01T23:10:25.574Z,7.75
2023-01-01T23:12:52.205Z,10.18
2023-01-01T23:15:18.780Z,8.60
2023-01-01T23:17:46.641Z,14.57
2023-01-01T23:20:13.165Z,9.02
2023-01-01T23:22:44.457Z,13.18
2023-01-01T23:25:16.122Z,10.65
2023-01-01T23:27:43.683Z,9.05
2023-01-01T23:30:11.537Z,14.07
2023-01-01T23:32:38.586Z,10.27
2023-01-01T23:35:07.455Z,12.07
2023-01-01T23:37:34.192Z,10.43
2023-01-01T23:40:00.885Z,9.32
2023-01-01T23:42:27.426Z,10.07
2023-01-01T23:44:54.015Z,15.43
2023-01-01T23:47:20.717Z,17.65
2023-01-01T23:49:47.441Z,8.88
2023-01-01T23:52:15.422Z,8.55
2023-01-01T23:54:42.060Z,12.30
2023-01-01T23:57:08.680Z,12.55
2023-01-01T23:59:35.325Z,10.68
